sensor_id;sensor_type;location;lat;lon;timestamp;temperature;humidity
42833;DHT22;64089;51.478;5.692;2023-03-14T00:01:22;12.10;99.90
42833;DHT22;64089;51.478;5.692;2023-03-14T00:03:50;12.00;99.90
42833;DHT22;64089;51.478;5.692;2023-03-14T00:06:17;12.00;99.90
42833;DHT22;64089;51.478;5.692;2023-03-14T00:08:43;11.90;99.90
42833;DHT22;64089;51.478;5.692;2023-03-14T00:11:12;11.90;99.90
42833;DHT22;64089;51.478;5.692;2023-03-14T00:13:38;11.90;99.90
42833;DHT22;64089;51.478;5.692;2023-03-14T00:16:06;11.90;99.90
42833;DHT22;64089;51.478;5.692;2023-03-14T00:18:32;11.80;99.90
42833;DHT22;64089;51.478;5.692;2023-03-14T00:21:03;11.80;99.90
42833;DHT22;64089;51.478;5.692;2023-03-14T00:23:31;11.80;99.90
42833;DHT22;64089;51.478;5.692;2023-03-14T00:26:04;11.80;99.90
42833;DHT22;64089;51.478;5.692;2023-03-14T00:28:30;11.80;99.90
42833;DHT22;64089;51.478;5.692;2023-03-14T00:30:56;11.80;99.90
42833;DHT22;64089;51.478;5.692;2023-03-14T00:33:22;11.80;99.90
42833;DHT22;64089;51.478;5.692;2023-03-14T00:36:02;11.80;99.90
42833;DHT22;64089;51.478;5.692;2023-03-14T00:38:28;11.80;99.90
42833;DHT22;64089;51.478;5.692;2023-03-14T00:40:54;11.90;99.90
42833;DHT22;64089;51.478;5.692;2023-03-14T00:43:23;11.80;99.90
42833;DHT22;64089;51.478;5.692;2023-03-14T00:45:50;11.70;99.90
42833;DHT22;64089;51.478;5.692;2023-03-14T00:48:17;11.70;99.90
42833;DHT22;64089;51.478;5.692;2023-03-14T00:50:43;11.60;99.90
42833;DHT22;64089;51.478;5.692;2023-03-14T00:53:09;11.60;99.90
42833;DHT22;64089;51.478;5.692;2023-03-14T00:55:39;11.50;99.90
42833;DHT22;64089;51.478;5.692;2023-03-14T00:58:05;11.50;99.90
42833;DHT22;64089;51.478;5.692;2023-03-14T01:00:31;11.50;99.90
42833;DHT22;64089;51.478;5.692;2023-03-14T01:02:57;11.50;99.90
42833;DHT22;64089;51.478;5.692;2023-03-14T01:05:23;11.50;99.90
42833;DHT22;64089;51.478;5.692;2023-03-14T01:07:48;11.50;99.90
42833;DHT22;64089;51.478;5.692;2023-03-14T01:10:14;11.50;99.90
42833;DHT22;64089;51.478;5.692;2023-03-14T01:12:40;11.50;99.90
42833;DHT22;64089;51.478;5.692;2023-03-14T01:15:06;11.40;99.90
42833;DHT22;64089;51.478;5.692;2023-03-14T01:17:32;11.30;99.90
42833;DHT22;64089;51.478;5.692;2023-03-14T01:19:58;11.40;99.90
42833;DHT22;64089;51.478;5.692;2023-03-14T01:22:24;11.40;99.90
42833;DHT22;64089;51.478;5.692;2023-03-14T01:24:50;11.40;99.90
42833;DHT22;64089;51.478;5.692;2023-03-14T01:27:15;11.40;99.90
42833;DHT22;64089;51.478;5.692;2023-03-14T01:29:41;11.50;99.90
42833;DHT22;64089;51.478;5.692;2023-03-14T01:32:07;11.40;99.90
42833;DHT22;64089;51.478;5.692;2023-03-14T01:34:32;11.50;99.90
42833;DHT22;64089;51.478;5.692;2023-03-14T01:36:58;11.40;99.90
42833;DHT22;64089;51.478;5.692;2023-03-14T01:39:23;11.50;99.90
42833;DHT22;64089;51.478;5.692;2023-03-14T01:41:49;11.40;99.90
42833;DHT22;64089;51.478;5.692;2023-03-14T01:44:15;11.40;99.90
42833;DHT22;64089;51.478;5.692;2023-03-14T01:46:42;11.40;99.90
42833;DHT22;64089;51.478;5.692;2023-03-14T01:49:30;11.40;99.90
42833;DHT22;64089;51.478;5.692;2023-03-14T01:54:44;11.40;99.90
42833;DHT22;64089;51.478;5.692;2023-03-14T01:59:38;11.30;99.90
42833;DHT22;64089;51.478;5.692;2023-03-14T02:02:07;11.30;99.90
42833;DHT22;64089;51.478;5.692;2023-03-14T02:04:36;11.40;99.90
42833;DHT22;64089;51.478;5.692;2023-03-14T02:07:37;11.40;99.90
42833;DHT22;64089;51.478;5.692;2023-03-14T02:09:56;11.40;99.90
42833;DHT22;64089;51.478;5.692;2023-03-14T02:12:23;11.30;99.90
42833;DHT22;64089;51.478;5.692;2023-03-14T02:14:49;11.30;99.90
42833;DHT22;64089;51.478;5.692;2023-03-14T02:17:17;11.30;99.90
42833;DHT22;64089;51.478;5.692;2023-03-14T02:19:52;11.30;99.90
42833;DHT22;64089;51.478;5.692;2023-03-14T02:22:20;11.30;99.90
42833;DHT22;64089;51.478;5.692;2023-03-14T02:27:21;11.30;99.90
42833;DHT22;64089;51.478;5.692;2023-03-14T02:30:02;11.20;99.90
42833;DHT22;64089;51.478;5.692;2023-03-14T02:32:31;11.20;99.90
42833;DHT22;64089;51.478;5.692;2023-03-14T02:34:59;11.20;99.90
42833;DHT22;64089;51.478;5.692;2023-03-14T02:37:32;11.10;99.90
42833;DHT22;64089;51.478;5.692;2023-03-14T02:40:00;11.00;99.90
42833;DHT22;64089;51.478;5.692;2023-03-14T02:42:26;11.00;99.90
42833;DHT22;64089;51.478;5.692;2023-03-14T02:44:58;11.00;99.90
42833;DHT22;64089;51.478;5.692;2023-03-14T02:47:30;10.90;99.90
42833;DHT22;64089;51.478;5.692;2023-03-14T02:50:08;10.90;99.90
42833;DHT22;64089;51.478;5.692;2023-03-14T02:52:34;10.80;99.90
42833;DHT22;64089;51.478;5.692;2023-03-14T02:55:00;10.90;99.90
42833;DHT22;64089;51.478;5.692;2023-03-14T02:57:26;10.90;99.90
42833;DHT22;64089;51.478;5.692;2023-03-14T02:59:51;10.90;99.90
42833;DHT22;64089;51.478;5.692;2023-03-14T03:02:17;10.80;99.90
42833;DHT22;64089;51.478;5.692;2023-03-14T03:04:43;10.70;99.90
42833;DHT22;64089;51.478;5.692;2023-03-14T03:07:08;10.70;99.90
42833;DHT22;64089;51.478;5.692;2023-03-14T03:09:34;10.70;99.90
42833;DHT22;64089;51.478;5.692;2023-03-14T03:12:00;10.80;99.90
42833;DHT22;64089;51.478;5.692;2023-03-14T03:14:25;10.80;99.90
42833;DHT22;64089;51.478;5.692;2023-03-14T03:16:51;10.80;99.90
42833;DHT22;64089;51.478;5.692;2023-03-14T03:19:16;10.80;99.90
42833;DHT22;64089;51.478;5.692;2023-03-14T03:21:43;10.80;99.90
42833;DHT22;64089;51.478;5.692;2023-03-14T03:24:09;10.80;99.90
42833;DHT22;64089;51.478;5.692;2023-03-14T03:26:35;10.80;99.90
42833;DHT22;64089;51.478;5.692;2023-03-14T03:29:01;10.80;99.90
42833;DHT22;64089;51.478;5.692;2023-03-14T03:31:26;10.80;99.90
42833;DHT22;64089;51.478;5.692;2023-03-14T03:33:52;10.80;99.90
42833;DHT22;64089;51.478;5.692;2023-03-14T03:36:23;10.80;99.90
42833;DHT22;64089;51.478;5.692;2023-03-14T03:38:49;10.70;99.90
42833;DHT22;64089;51.478;5.692;2023-03-14T03:41:14;10.70;99.90
42833;DHT22;64089;51.478;5.692;2023-03-14T03:43:40;10.70;99.90
42833;DHT22;64089;51.478;5.692;2023-03-14T03:46:06;10.70;99.90
42833;DHT22;64089;51.478;5.692;2023-03-14T03:48:32;10.70;99.90
42833;DHT22;64089;51.478;5.692;2023-03-14T03:50:58;10.70;99.90
42833;DHT22;64089;51.478;5.692;2023-03-14T03:53:25;10.70;99.90
42833;DHT22;64089;51.478;5.692;2023-03-14T03:55:50;10.70;99.90
42833;DHT22;64089;51.478;5.692;2023-03-14T03:58:16;10.70;99.90
42833;DHT22;64089;51.478;5.692;2023-03-14T04:00:41;10.70;99.90
42833;DHT22;64089;51.478;5.692;2023-03-14T04:03:07;10.60;99.90
42833;DHT22;64089;51.478;5.692;2023-03-14T04:05:33;10.50;99.90
42833;DHT22;64089;51.478;5.692;2023-03-14T04:08:00;10.50;99.90
42833;DHT22;64089;51.478;5.692;2023-03-14T04:10:25;10.30;99.90
42833;DHT22;64089;51.478;5.692;2023-03-14T04:12:51;10.30;99.90
42833;DHT22;64089;51.478;5.692;2023-03-14T04:15:17;10.20;99.90
42833;DHT22;64089;51.478;5.692;2023-03-14T04:17:46;10.20;99.90
42833;DHT22;64089;51.478;5.692;2023-03-14T04:20:12;10.10;99.90
42833;DHT22;64089;51.478;5.692;2023-03-14T04:22:38;10.10;99.90
42833;DHT22;64089;51.478;5.692;2023-03-14T04:25:05;10.00;99.90
42833;DHT22;64089;51.478;5.692;2023-03-14T04:27:31;10.00;99.90
42833;DHT22;64089;51.478;5.692;2023-03-14T04:29:57;10.00;99.90
42833;DHT22;64089;51.478;5.692;2023-03-14T04:32:25;10.00;99.90
42833;DHT22;64089;51.478;5.692;2023-03-14T04:34:51;10.00;99.90
42833;DHT22;64089;51.478;5.692;2023-03-14T04:37:16;10.00;99.90
42833;DHT22;64089;51.478;5.692;2023-03-14T04:39:42;10.00;99.90
42833;DHT22;64089;51.478;5.692;2023-03-14T04:42:08;10.00;99.90
42833;DHT22;64089;51.478;5.692;2023-03-14T04:44:33;9.90;99.90
42833;DHT22;64089;51.478;5.692;2023-03-14T04:47:00;9.90;99.90
42833;DHT22;64089;51.478;5.692;2023-03-14T04:49:25;9.90;99.90
42833;DHT22;64089;51.478;5.692;2023-03-14T04:51:51;9.80;99.90
42833;DHT22;64089;51.478;5.692;2023-03-14T04:54:17;9.90;99.90
42833;DHT22;64089;51.478;5.692;2023-03-14T04:56:43;9.90;99.90
42833;DHT22;64089;51.478;5.692;2023-03-14T04:59:09;9.90;99.90
42833;DHT22;64089;51.478;5.692;2023-03-14T05:01:35;10.00;99.90
42833;DHT22;64089;51.478;5.692;2023-03-14T05:04:01;10.00;99.90
42833;DHT22;64089;51.478;5.692;2023-03-14T05:06:26;10.00;99.90
42833;DHT22;64089;51.478;5.692;2023-03-14T05:08:52;10.00;99.90
42833;DHT22;64089;51.478;5.692;2023-03-14T05:11:17;10.10;99.90
42833;DHT22;64089;51.478;5.692;2023-03-14T05:13:46;10.00;99.90
42833;DHT22;64089;51.478;5.692;2023-03-14T05:16:12;10.00;99.90
42833;DHT22;64089;51.478;5.692;2023-03-14T05:18:37;10.00;99.90
42833;DHT22;64089;51.478;5.692;2023-03-14T05:21:04;10.00;99.90
42833;DHT22;64089;51.478;5.692;2023-03-14T05:23:29;10.00;99.90
42833;DHT22;64089;51.478;5.692;2023-03-14T05:25:56;10.00;99.90
42833;DHT22;64089;51.478;5.692;2023-03-14T05:28:21;10.00;99.90
42833;DHT22;64089;51.478;5.692;2023-03-14T05:30:47;10.00;99.90
42833;DHT22;64089;51.478;5.692;2023-03-14T05:33:13;9.90;99.90
42833;DHT22;64089;51.478;5.692;2023-03-14T05:35:38;9.90;99.90
42833;DHT22;64089;51.478;5.692;2023-03-14T05:38:04;9.90;99.90
42833;DHT22;64089;51.478;5.692;2023-03-14T05:40:30;10.00;99.90
42833;DHT22;64089;51.478;5.692;2023-03-14T05:42:55;10.00;99.90
42833;DHT22;64089;51.478;5.692;2023-03-14T05:45:21;10.00;99.90
42833;DHT22;64089;51.478;5.692;2023-03-14T05:47:46;10.00;99.90
42833;DHT22;64089;51.478;5.692;2023-03-14T05:50:12;10.00;99.90
42833;DHT22;64089;51.478;5.692;2023-03-14T05:52:38;10.00;99.90
42833;DHT22;64089;51.478;5.692;2023-03-14T05:55:04;10.00;99.90
42833;DHT22;64089;51.478;5.692;2023-03-14T05:57:30;10.00;99.90
42833;DHT22;64089;51.478;5.692;2023-03-14T05:59:55;10.00;99.90
42833;DHT22;64089;51.478;5.692;2023-03-14T06:02:21;10.10;99.90
42833;DHT22;64089;51.478;5.692;2023-03-14T06:04:47;10.10;99.90
42833;DHT22;64089;51.478;5.692;2023-03-14T06:07:12;10.10;99.90
42833;DHT22;64089;51.478;5.692;2023-03-14T06:09:38;10.10;99.90
42833;DHT22;64089;51.478;5.692;2023-03-14T06:12:05;10.20;99.90
42833;DHT22;64089;51.478;5.692;2023-03-14T06:14:31;10.20;99.90
42833;DHT22;64089;51.478;5.692;2023-03-14T06:16:57;10.20;99.90
42833;DHT22;64089;51.478;5.692;2023-03-14T06:19:25;10.20;99.90
42833;DHT22;64089;51.478;5.692;2023-03-14T06:21:51;10.20;99.90
42833;DHT22;64089;51.478;5.692;2023-03-14T06:24:16;10.20;99.90
42833;DHT22;64089;51.478;5.692;2023-03-14T06:26:42;10.20;99.90
42833;DHT22;64089;51.478;5.692;2023-03-14T06:29:07;10.20;99.90
42833;DHT22;64089;51.478;5.692;2023-03-14T06:31:33;10.10;99.90
42833;DHT22;64089;51.478;5.692;2023-03-14T06:33:59;10.10;99.90
42833;DHT22;64089;51.478;5.692;2023-03-14T06:36:25;10.20;99.90
42833;DHT22;64089;51.478;5.692;2023-03-14T06:38:50;10.20;99.90
42833;DHT22;64089;51.478;5.692;2023-03-14T06:41:16;10.20;99.90
42833;DHT22;64089;51.478;5.692;2023-03-14T06:43:42;10.30;99.90
42833;DHT22;64089;51.478;5.692;2023-03-14T06:46:07;10.30;99.90
42833;DHT22;64089;51.478;5.692;2023-03-14T06:48:33;10.30;99.90
42833;DHT22;64089;51.478;5.692;2023-03-14T06:50:59;10.30;99.90
42833;DHT22;64089;51.478;5.692;2023-03-14T06:53:24;10.40;99.90
42833;DHT22;64089;51.478;5.692;2023-03-14T06:55:50;10.50;99.90
42833;DHT22;64089;51.478;5.692;2023-03-14T06:58:16;10.60;99.90
42833;DHT22;64089;51.478;5.692;2023-03-14T07:00:42;10.70;99.90
42833;DHT22;64089;51.478;5.692;2023-03-14T07:03:08;10.70;99.90
42833;DHT22;64089;51.478;5.692;2023-03-14T07:05:34;10.80;99.90
42833;DHT22;64089;51.478;5.692;2023-03-14T07:07:59;10.80;99.90
42833;DHT22;64089;51.478;5.692;2023-03-14T07:10:25;10.90;99.90
42833;DHT22;64089;51.478;5.692;2023-03-14T07:12:51;11.10;99.90
42833;DHT22;64089;51.478;5.692;2023-03-14T07:15:18;11.20;99.90
42833;DHT22;64089;51.478;5.692;2023-03-14T07:17:46;11.20;99.90
42833;DHT22;64089;51.478;5.692;2023-03-14T07:20:13;11.30;99.90
42833;DHT22;64089;51.478;5.692;2023-03-14T07:22:39;11.20;99.90
42833;DHT22;64089;51.478;5.692;2023-03-14T07:25:05;11.20;99.90
42833;DHT22;64089;51.478;5.692;2023-03-14T07:27:31;11.20;99.90
42833;DHT22;64089;51.478;5.692;2023-03-14T07:29:56;11.20;99.90
42833;DHT22;64089;51.478;5.692;2023-03-14T07:32:22;11.10;99.90
42833;DHT22;64089;51.478;5.692;2023-03-14T07:34:48;11.40;99.90
42833;DHT22;64089;51.478;5.692;2023-03-14T07:37:14;11.40;99.90
42833;DHT22;64089;51.478;5.692;2023-03-14T07:39:39;11.30;99.90
42833;DHT22;64089;51.478;5.692;2023-03-14T07:42:05;11.10;99.90
42833;DHT22;64089;51.478;5.692;2023-03-14T07:44:31;11.00;99.90
42833;DHT22;64089;51.478;5.692;2023-03-14T07:46:56;11.00;99.90
42833;DHT22;64089;51.478;5.692;2023-03-14T07:49:22;10.80;99.90
42833;DHT22;64089;51.478;5.692;2023-03-14T07:51:48;10.70;99.90
42833;DHT22;64089;51.478;5.692;2023-03-14T07:54:14;10.60;99.90
42833;DHT22;64089;51.478;5.692;2023-03-14T07:56:40;10.10;99.90
42833;DHT22;64089;51.478;5.692;2023-03-14T07:59:06;9.50;99.90
42833;DHT22;64089;51.478;5.692;2023-03-14T08:01:31;8.90;99.90
42833;DHT22;64089;51.478;5.692;2023-03-14T08:03:57;8.80;99.90
42833;DHT22;64089;51.478;5.692;2023-03-14T08:06:22;8.70;99.90
42833;DHT22;64089;51.478;5.692;2023-03-14T08:08:48;8.60;99.90
42833;DHT22;64089;51.478;5.692;2023-03-14T08:11:13;8.50;99.90
42833;DHT22;64089;51.478;5.692;2023-03-14T08:13:39;8.40;99.90
42833;DHT22;64089;51.478;5.692;2023-03-14T08:16:05;8.40;99.90
42833;DHT22;64089;51.478;5.692;2023-03-14T08:18:31;8.20;99.90
42833;DHT22;64089;51.478;5.692;2023-03-14T08:20:57;8.10;99.90
42833;DHT22;64089;51.478;5.692;2023-03-14T08:23:23;8.10;99.90
42833;DHT22;64089;51.478;5.692;2023-03-14T08:25:50;8.10;99.90
42833;DHT22;64089;51.478;5.692;2023-03-14T08:28:16;8.10;99.90
42833;DHT22;64089;51.478;5.692;2023-03-14T08:30:42;8.10;99.90
42833;DHT22;64089;51.478;5.692;2023-03-14T08:33:07;8.10;99.90
42833;DHT22;64089;51.478;5.692;2023-03-14T08:35:33;8.20;99.90
42833;DHT22;64089;51.478;5.692;2023-03-14T08:37:58;8.30;99.90
42833;DHT22;64089;51.478;5.692;2023-03-14T08:40:24;8.30;99.90
42833;DHT22;64089;51.478;5.692;2023-03-14T08:42:50;8.40;99.90
42833;DHT22;64089;51.478;5.692;2023-03-14T08:45:16;8.30;99.90
42833;DHT22;64089;51.478;5.692;2023-03-14T08:47:43;8.40;99.90
42833;DHT22;64089;51.478;5.692;2023-03-14T08:50:10;8.30;99.90
42833;DHT22;64089;51.478;5.692;2023-03-14T08:52:36;8.30;99.90
42833;DHT22;64089;51.478;5.692;2023-03-14T08:55:03;8.30;99.90
42833;DHT22;64089;51.478;5.692;2023-03-14T08:57:29;8.30;99.90
42833;DHT22;64089;51.478;5.692;2023-03-14T08:59:56;8.20;99.90
42833;DHT22;64089;51.478;5.692;2023-03-14T09:02:23;8.20;99.90
42833;DHT22;64089;51.478;5.692;2023-03-14T09:04:50;8.30;99.90
42833;DHT22;64089;51.478;5.692;2023-03-14T09:07:16;8.30;99.90
42833;DHT22;64089;51.478;5.692;2023-03-14T09:09:42;8.40;99.90
42833;DHT22;64089;51.478;5.692;2023-03-14T09:12:07;8.50;99.90
42833;DHT22;64089;51.478;5.692;2023-03-14T09:14:33;8.60;99.90
42833;DHT22;64089;51.478;5.692;2023-03-14T09:16:59;8.50;99.90
42833;DHT22;64089;51.478;5.692;2023-03-14T09:19:24;8.50;99.90
42833;DHT22;64089;51.478;5.692;2023-03-14T09:21:50;8.60;99.90
42833;DHT22;64089;51.478;5.692;2023-03-14T09:24:17;8.80;99.90
42833;DHT22;64089;51.478;5.692;2023-03-14T09:26:42;8.90;99.90
42833;DHT22;64089;51.478;5.692;2023-03-14T09:29:08;8.80;99.90
42833;DHT22;64089;51.478;5.692;2023-03-14T09:31:34;8.90;99.90
42833;DHT22;64089;51.478;5.692;2023-03-14T09:34:00;8.90;99.90
42833;DHT22;64089;51.478;5.692;2023-03-14T09:36:26;8.70;99.90
42833;DHT22;64089;51.478;5.692;2023-03-14T09:38:51;8.50;99.90
42833;DHT22;64089;51.478;5.692;2023-03-14T09:41:22;8.40;99.90
42833;DHT22;64089;51.478;5.692;2023-03-14T09:43:51;8.20;99.90
42833;DHT22;64089;51.478;5.692;2023-03-14T09:46:23;7.90;99.90
42833;DHT22;64089;51.478;5.692;2023-03-14T09:48:48;7.80;99.90
42833;DHT22;64089;51.478;5.692;2023-03-14T09:51:17;7.70;99.90
42833;DHT22;64089;51.478;5.692;2023-03-14T09:53:45;7.60;99.90
42833;DHT22;64089;51.478;5.692;2023-03-14T09:56:25;7.50;99.90
42833;DHT22;64089;51.478;5.692;2023-03-14T09:59:03;7.10;99.90
42833;DHT22;64089;51.478;5.692;2023-03-14T10:01:32;6.70;99.90
42833;DHT22;64089;51.478;5.692;2023-03-14T10:04:02;6.50;99.90
42833;DHT22;64089;51.478;5.692;2023-03-14T10:06:30;6.40;99.90
42833;DHT22;64089;51.478;5.692;2023-03-14T10:08:56;6.30;99.90
42833;DHT22;64089;51.478;5.692;2023-03-14T10:11:23;6.50;99.90
42833;DHT22;64089;51.478;5.692;2023-03-14T10:14:05;6.60;99.90
42833;DHT22;64089;51.478;5.692;2023-03-14T10:16:37;6.80;99.90
42833;DHT22;64089;51.478;5.692;2023-03-14T10:19:08;7.00;99.90
42833;DHT22;64089;51.478;5.692;2023-03-14T10:21:40;7.00;99.90
42833;DHT22;64089;51.478;5.692;2023-03-14T10:24:08;7.20;99.90
42833;DHT22;64089;51.478;5.692;2023-03-14T10:26:34;7.30;99.90
42833;DHT22;64089;51.478;5.692;2023-03-14T10:29:12;7.30;99.90
42833;DHT22;64089;51.478;5.692;2023-03-14T10:31:54;7.30;99.90
42833;DHT22;64089;51.478;5.692;2023-03-14T10:34:22;7.30;99.90
42833;DHT22;64089;51.478;5.692;2023-03-14T10:36:56;7.30;99.90
42833;DHT22;64089;51.478;5.692;2023-03-14T10:39:29;7.40;99.90
42833;DHT22;64089;51.478;5.692;2023-03-14T10:42:11;7.50;99.90
42833;DHT22;64089;51.478;5.692;2023-03-14T10:44:38;7.50;99.90
42833;DHT22;64089;51.478;5.692;2023-03-14T10:47:05;7.40;99.90
42833;DHT22;64089;51.478;5.692;2023-03-14T10:49:36;7.50;99.90
42833;DHT22;64089;51.478;5.692;2023-03-14T10:52:23;7.50;99.90
42833;DHT22;64089;51.478;5.692;2023-03-14T10:54:57;7.50;99.90
42833;DHT22;64089;51.478;5.692;2023-03-14T10:57:23;7.60;99.90
42833;DHT22;64089;51.478;5.692;2023-03-14T10:59:49;7.70;99.90
42833;DHT22;64089;51.478;5.692;2023-03-14T11:02:49;8.00;99.90
42833;DHT22;64089;51.478;5.692;2023-03-14T11:05:31;8.00;99.90
42833;DHT22;64089;51.478;5.692;2023-03-14T11:11:06;8.20;99.90
42833;DHT22;64089;51.478;5.692;2023-03-14T11:19:48;8.20;99.90
42833;DHT22;64089;51.478;5.692;2023-03-14T11:22:23;7.90;99.90
42833;DHT22;64089;51.478;5.692;2023-03-14T11:27:48;7.90;99.90
42833;DHT22;64089;51.478;5.692;2023-03-14T11:30:18;8.10;99.90
42833;DHT22;64089;51.478;5.692;2023-03-14T11:32:50;8.20;99.90
42833;DHT22;64089;51.478;5.692;2023-03-14T11:35:43;8.20;99.90
42833;DHT22;64089;51.478;5.692;2023-03-14T11:40:57;8.00;99.90
42833;DHT22;64089;51.478;5.692;2023-03-14T11:45:56;7.10;99.90
42833;DHT22;64089;51.478;5.692;2023-03-14T11:51:15;6.10;99.90
42833;DHT22;64089;51.478;5.692;2023-03-14T11:56:55;6.20;99.90
42833;DHT22;64089;51.478;5.692;2023-03-14T12:07:31;6.70;99.90
42833;DHT22;64089;51.478;5.692;2023-03-14T12:10:02;6.70;99.90
42833;DHT22;64089;51.478;5.692;2023-03-14T12:12:30;6.90;99.90
42833;DHT22;64089;51.478;5.692;2023-03-14T12:15:01;7.00;99.90
42833;DHT22;64089;51.478;5.692;2023-03-14T12:17:39;7.20;99.90
42833;DHT22;64089;51.478;5.692;2023-03-14T12:27:46;6.90;99.90
42833;DHT22;64089;51.478;5.692;2023-03-14T12:35:52;6.30;99.90
42833;DHT22;64089;51.478;5.692;2023-03-14T12:43:42;6.70;99.90
42833;DHT22;64089;51.478;5.692;2023-03-14T12:51:38;7.20;99.90
42833;DHT22;64089;51.478;5.692;2023-03-14T12:59:32;7.30;99.90
42833;DHT22;64089;51.478;5.692;2023-03-14T13:04:36;8.00;99.90
42833;DHT22;64089;51.478;5.692;2023-03-14T13:07:13;8.10;99.90
42833;DHT22;64089;51.478;5.692;2023-03-14T13:12:56;8.50;99.90
42833;DHT22;64089;51.478;5.692;2023-03-14T13:15:25;8.50;99.90
42833;DHT22;64089;51.478;5.692;2023-03-14T13:17:54;8.60;99.90
42833;DHT22;64089;51.478;5.692;2023-03-14T13:20:27;8.80;99.90
42833;DHT22;64089;51.478;5.692;2023-03-14T13:22:54;9.00;99.90
42833;DHT22;64089;51.478;5.692;2023-03-14T13:25:19;9.10;99.90
42833;DHT22;64089;51.478;5.692;2023-03-14T13:27:47;9.00;99.90
42833;DHT22;64089;51.478;5.692;2023-03-14T13:30:27;8.90;99.90
42833;DHT22;64089;51.478;5.692;2023-03-14T13:32:53;8.80;99.80
42833;DHT22;64089;51.478;5.692;2023-03-14T13:35:26;9.00;99.90
42833;DHT22;64089;51.478;5.692;2023-03-14T13:37:58;9.00;99.70
42833;DHT22;64089;51.478;5.692;2023-03-14T13:40:29;8.70;94.70
42833;DHT22;64089;51.478;5.692;2023-03-14T13:43:28;8.80;95.40
42833;DHT22;64089;51.478;5.692;2023-03-14T13:46:14;8.70;95.80
42833;DHT22;64089;51.478;5.692;2023-03-14T13:48:47;8.80;96.80
42833;DHT22;64089;51.478;5.692;2023-03-14T13:51:15;9.00;96.80
42833;DHT22;64089;51.478;5.692;2023-03-14T13:53:44;9.10;97.20
42833;DHT22;64089;51.478;5.692;2023-03-14T13:56:11;9.10;93.70
42833;DHT22;64089;51.478;5.692;2023-03-14T13:58:39;9.30;94.40
42833;DHT22;64089;51.478;5.692;2023-03-14T14:01:33;9.20;93.10
42833;DHT22;64089;51.478;5.692;2023-03-14T14:04:08;9.00;93.80
42833;DHT22;64089;51.478;5.692;2023-03-14T14:06:36;9.00;93.40
42833;DHT22;64089;51.478;5.692;2023-03-14T14:09:15;8.80;94.00
42833;DHT22;64089;51.478;5.692;2023-03-14T14:12:13;8.90;92.70
42833;DHT22;64089;51.478;5.692;2023-03-14T14:14:54;9.00;95.10
42833;DHT22;64089;51.478;5.692;2023-03-14T14:17:31;9.00;93.80
42833;DHT22;64089;51.478;5.692;2023-03-14T14:20:00;9.10;94.00
42833;DHT22;64089;51.478;5.692;2023-03-14T14:22:26;9.20;93.70
42833;DHT22;64089;51.478;5.692;2023-03-14T14:24:52;9.20;93.60
42833;DHT22;64089;51.478;5.692;2023-03-14T14:30:30;9.00;92.50
42833;DHT22;64089;51.478;5.692;2023-03-14T14:33:16;8.90;93.30
42833;DHT22;64089;51.478;5.692;2023-03-14T14:35:42;9.00;91.70
42833;DHT22;64089;51.478;5.692;2023-03-14T14:38:16;8.90;92.80
42833;DHT22;64089;51.478;5.692;2023-03-14T14:40:48;8.90;92.50
42833;DHT22;64089;51.478;5.692;2023-03-14T14:43:26;8.80;92.40
42833;DHT22;64089;51.478;5.692;2023-03-14T14:45:54;8.70;93.80
42833;DHT22;64089;51.478;5.692;2023-03-14T14:48:26;8.60;93.00
42833;DHT22;64089;51.478;5.692;2023-03-14T14:51:01;8.60;93.60
42833;DHT22;64089;51.478;5.692;2023-03-14T14:53:41;8.40;92.10
42833;DHT22;64089;51.478;5.692;2023-03-14T14:58:46;8.60;92.30
42833;DHT22;64089;51.478;5.692;2023-03-14T15:03:38;8.60;91.10
42833;DHT22;64089;51.478;5.692;2023-03-14T15:06:04;8.60;91.60
42833;DHT22;64089;51.478;5.692;2023-03-14T15:08:30;8.50;91.70
42833;DHT22;64089;51.478;5.692;2023-03-14T15:10:56;8.60;93.70
42833;DHT22;64089;51.478;5.692;2023-03-14T15:13:22;8.60;94.50
42833;DHT22;64089;51.478;5.692;2023-03-14T15:15:50;8.50;93.70
42833;DHT22;64089;51.478;5.692;2023-03-14T15:18:25;8.40;93.30
42833;DHT22;64089;51.478;5.692;2023-03-14T15:20:53;8.40;93.70
42833;DHT22;64089;51.478;5.692;2023-03-14T15:23:21;8.30;92.50
42833;DHT22;64089;51.478;5.692;2023-03-14T15:25:47;8.20;92.90
42833;DHT22;64089;51.478;5.692;2023-03-14T15:28:20;8.20;93.40
42833;DHT22;64089;51.478;5.692;2023-03-14T15:30:50;8.10;93.30
42833;DHT22;64089;51.478;5.692;2023-03-14T15:33:16;7.90;92.80
42833;DHT22;64089;51.478;5.692;2023-03-14T15:35:42;7.90;92.90
42833;DHT22;64089;51.478;5.692;2023-03-14T15:38:12;7.80;92.70
42833;DHT22;64089;51.478;5.692;2023-03-14T15:40:39;7.70;92.90
42833;DHT22;64089;51.478;5.692;2023-03-14T15:43:05;7.60;92.50
42833;DHT22;64089;51.478;5.692;2023-03-14T15:45:30;7.60;93.70
42833;DHT22;64089;51.478;5.692;2023-03-14T15:47:56;7.60;93.60
42833;DHT22;64089;51.478;5.692;2023-03-14T15:50:22;7.60;93.10
42833;DHT22;64089;51.478;5.692;2023-03-14T15:52:48;7.40;92.50
42833;DHT22;64089;51.478;5.692;2023-03-14T15:55:14;7.30;92.70
42833;DHT22;64089;51.478;5.692;2023-03-14T15:57:44;7.20;92.40
42833;DHT22;64089;51.478;5.692;2023-03-14T16:00:13;7.20;93.00
42833;DHT22;64089;51.478;5.692;2023-03-14T16:02:42;7.20;93.30
42833;DHT22;64089;51.478;5.692;2023-03-14T16:05:09;7.20;93.50
42833;DHT22;64089;51.478;5.692;2023-03-14T16:07:35;7.20;92.90
42833;DHT22;64089;51.478;5.692;2023-03-14T16:10:00;7.20;93.00
42833;DHT22;64089;51.478;5.692;2023-03-14T16:12:26;7.10;92.90
42833;DHT22;64089;51.478;5.692;2023-03-14T16:14:52;7.10;93.00
42833;DHT22;64089;51.478;5.692;2023-03-14T16:17:17;7.10;92.90
42833;DHT22;64089;51.478;5.692;2023-03-14T16:19:43;7.10;92.90
42833;DHT22;64089;51.478;5.692;2023-03-14T16:22:09;7.20;94.50
42833;DHT22;64089;51.478;5.692;2023-03-14T16:24:34;7.20;93.30
42833;DHT22;64089;51.478;5.692;2023-03-14T16:27:00;7.10;93.70
42833;DHT22;64089;51.478;5.692;2023-03-14T16:29:25;7.00;94.40
42833;DHT22;64089;51.478;5.692;2023-03-14T16:31:51;7.00;94.00
42833;DHT22;64089;51.478;5.692;2023-03-14T16:34:17;6.90;93.80
42833;DHT22;64089;51.478;5.692;2023-03-14T16:36:42;6.80;94.20
42833;DHT22;64089;51.478;5.692;2023-03-14T16:39:08;6.80;93.40
42833;DHT22;64089;51.478;5.692;2023-03-14T16:41:34;6.80;94.50
42833;DHT22;64089;51.478;5.692;2023-03-14T16:44:00;6.80;94.30
42833;DHT22;64089;51.478;5.692;2023-03-14T16:46:27;6.80;93.60
42833;DHT22;64089;51.478;5.692;2023-03-14T16:48:55;6.80;94.10
42833;DHT22;64089;51.478;5.692;2023-03-14T16:51:24;6.70;93.20
42833;DHT22;64089;51.478;5.692;2023-03-14T16:53:49;6.60;93.80
42833;DHT22;64089;51.478;5.692;2023-03-14T16:56:15;6.60;93.90
42833;DHT22;64089;51.478;5.692;2023-03-14T16:58:41;6.60;93.80
42833;DHT22;64089;51.478;5.692;2023-03-14T17:01:08;6.50;93.40
42833;DHT22;64089;51.478;5.692;2023-03-14T17:03:38;6.50;93.30
42833;DHT22;64089;51.478;5.692;2023-03-14T17:06:05;6.40;93.10
42833;DHT22;64089;51.478;5.692;2023-03-14T17:08:31;6.40;93.30